Time;durP1;ratioP1;P1;durP2;ratioP2;P2;SDS_P1;SDS_P2;PMS_P1;PMS_P2;Temp;Humidity;BMP_temperature;BMP_pressure;BME280_temperature;BME280_humidity;BME280_pressure;Samples;Min_cycle;Max_cycle;Signal;HPM_P1;HPM_P2
2022/11/26 00:00:43;;;;;;;20.05;7.95;;;;;;;7.32;87.65;102524.25;5132534;28;20023;-64
2022/11/26 00:03:11;;;;;;;20.27;8.18;;;;;;;7.31;87.99;102521.56;5133830;28;20075;-64
2022/11/26 00:05:37;;;;;;;20.13;7.95;;;;;;;7.26;87.71;102521.31;5133761;28;20068;-64
2022/11/26 00:08:04;;;;;;;18.50;7.18;;;;;;;7.22;87.59;102533.41;5133772;28;20055;-64
2022/11/26 00:10:34;;;;;;;19.88;7.88;;;;;;;7.20;88.09;102523.66;5133568;28;20031;-64
2022/11/26 00:13:00;;;;;;;16.27;7.43;;;;;;;7.20;88.00;102540.31;5133771;28;20043;-64
2022/11/26 00:15:30;;;;;;;17.52;7.60;;;;;;;7.17;87.34;102537.53;5133829;28;20030;-63
2022/11/26 00:17:56;;;;;;;23.50;8.10;;;;;;;7.13;88.70;102537.28;5133444;28;20020;-64
2022/11/26 00:20:29;;;;;;;20.52;7.88;;;;;;;7.03;88.77;102530.66;5133645;28;20376;-63
2022/11/26 00:23:00;;;;;;;23.83;7.95;;;;;;;7.02;88.64;102539.34;5133722;28;20019;-64
2022/11/26 00:25:32;;;;;;;22.25;7.93;;;;;;;6.99;88.96;102544.47;5133749;28;20027;-64
2022/11/26 00:27:58;;;;;;;18.63;7.75;;;;;;;6.98;88.87;102540.94;5133850;28;20023;-64
2022/11/26 00:30:25;;;;;;;22.30;8.25;;;;;;;7.02;88.06;102544.59;5133526;28;20027;-64
2022/11/26 00:32:52;;;;;;;20.58;7.63;;;;;;;7.02;88.04;102544.59;5133592;28;20548;-64
2022/11/26 00:35:18;;;;;;;20.10;8.20;;;;;;;7.06;87.99;102546.56;5133335;28;20031;-66
2022/11/26 00:37:47;;;;;;;20.90;8.20;;;;;;;7.04;87.99;102537.72;5133817;28;20045;-64
2022/11/26 00:40:23;;;;;;;28.15;7.72;;;;;;;7.05;87.97;102536.00;5133508;28;20047;-64
2022/11/26 00:42:49;;;;;;;24.30;7.90;;;;;;;7.00;87.32;102538.38;5133542;28;20062;-63
2022/11/26 00:45:17;;;;;;;19.92;8.13;;;;;;;6.99;88.13;102540.09;5133480;28;20402;-64
2022/11/26 00:47:42;;;;;;;21.80;7.93;;;;;;;7.00;87.09;102541.91;5133201;28;20022;-63
2022/11/26 00:50:13;;;;;;;17.52;7.85;;;;;;;6.99;87.58;102540.09;5133630;28;20023;-63
2022/11/26 00:52:38;;;;;;;19.55;7.28;;;;;;;7.06;87.66;102546.56;5133055;28;20449;-64
2022/11/26 00:55:28;;;;;;;21.13;8.30;;;;;;;7.02;86.98;102547.22;5133436;28;20023;-64
2022/11/26 00:57:54;;;;;;;17.95;7.32;;;;;;;7.00;87.25;102552.41;5132784;28;20035;-63
2022/11/26 01:00:23;;;;;;;17.27;7.18;;;;;;;6.92;87.57;102553.75;5133247;28;20080;-64
2022/11/26 01:02:49;;;;;;;20.23;6.93;;;;;;;6.90;87.83;102554.50;5133281;28;20016;-62
2022/11/26 01:05:15;;;;;;;20.58;7.38;;;;;;;6.86;87.75;102552.53;5134697;27;20399;-64
2022/11/26 01:07:41;;;;;;;18.70;7.32;;;;;;;6.82;87.52;102551.44;5137003;27;20011;-64
2022/11/26 01:10:28;;;;;;;17.52;7.88;;;;;;;6.83;87.88;102550.63;5137121;27;20031;-64
2022/11/26 01:12:55;;;;;;;13.88;7.55;;;;;;;6.75;88.13;102558.09;5136729;27;20038;-63
2022/11/26 01:15:24;;;;;;;17.55;7.82;;;;;;;6.73;88.15;102564.09;5136800;27;20027;-64
2022/11/26 01:17:51;;;;;;;18.17;7.60;;;;;;;6.71;87.93;102564.00;5136956;27;20433;-64
2022/11/26 01:20:22;;;;;;;18.23;7.72;;;;;;;6.71;89.31;102560.47;5136704;27;20031;-63
2022/11/26 01:22:49;;;;;;;18.70;7.70;;;;;;;6.66;88.88;102554.97;5136688;27;20019;-63
2022/11/26 01:25:14;;;;;;;16.48;7.32;;;;;;;6.68;88.99;102552.41;5136675;27;20071;-64
2022/11/26 01:27:40;;;;;;;25.23;8.45;;;;;;;6.75;88.75;102554.56;5136836;27;20102;-63
2022/11/26 01:30:28;;;;;;;17.52;7.55;;;;;;;6.75;88.76;102552.84;5136570;27;20019;-64
2022/11/26 01:32:53;;;;;;;17.02;7.20;;;;;;;6.68;87.85;102550.72;5136549;27;20058;-64
2022/11/26 01:35:20;;;;;;;18.75;8.13;;;;;;;6.65;88.13;102554.91;5136426;27;20024;-63
2022/11/26 01:37:46;;;;;;;18.65;7.68;;;;;;;6.58;87.07;102558.91;5136420;27;20521;-63
2022/11/26 01:40:24;;;;;;;15.95;7.32;;;;;;;6.57;87.76;102554.47;5136377;27;20027;-63
2022/11/26 01:42:54;;;;;;;14.27;6.90;;;;;;;6.50;86.86;102555.84;5136329;27;20027;-62
2022/11/26 01:45:21;;;;;;;13.07;6.43;;;;;;;6.47;86.60;102549.56;5136582;27;20047;-63
2022/11/26 01:47:47;;;;;;;13.93;6.85;;;;;;;6.49;87.75;102555.78;5136324;27;20096;-63
2022/11/26 01:50:31;;;;;;;18.10;7.13;;;;;;;6.51;88.25;102557.69;5136464;27;20452;-63
2022/11/26 01:53:02;;;;;;;22.25;7.70;;;;;;;6.49;87.74;102563.66;5135945;27;20043;-63
2022/11/26 01:55:53;;;;;;;18.95;8.10;;;;;;;6.44;88.79;102560.78;5136382;27;20156;-63
2022/11/26 01:58:40;;;;;;;20.23;8.05;;;;;;;6.46;88.99;102579.25;5136059;27;20437;-63
2022/11/26 02:01:06;;;;;;;22.60;7.85;;;;;;;6.46;89.34;102574.00;5136035;27;20031;-63
2022/11/26 02:03:39;;;;;;;19.42;7.80;;;;;;;6.46;88.80;102564.38;5136010;27;20023;-62
2022/11/26 02:06:12;;;;;;;21.27;7.80;;;;;;;6.41;88.89;102564.97;5136069;27;20530;-63
2022/11/26 02:08:37;;;;;;;21.95;8.00;;;;;;;6.38;88.82;102568.34;5135785;27;20071;-62
2022/11/26 02:11:16;;;;;;;23.30;7.88;;;;;;;6.34;88.93;102570.69;5135731;27;20102;-63
2022/11/26 02:13:43;;;;;;;18.60;7.63;;;;;;;6.33;88.98;102574.13;5135717;27;20106;-63
2022/11/26 02:16:36;;;;;;;16.40;7.43;;;;;;;6.37;88.70;102578.72;5134546;27;20024;-63
2022/11/26 02:19:18;;;;;;;19.02;7.38;;;;;;;6.38;89.94;102588.41;5135644;27;20418;-64
2022/11/26 02:21:55;;;;;;;15.90;7.55;;;;;;;6.41;89.00;102589.50;5135566;27;20051;-63
2022/11/26 02:24:42;;;;;;;21.92;7.85;;;;;;;6.43;88.82;102590.50;5135615;27;20096;-63
2022/11/26 02:27:20;;;;;;;21.10;7.90;;;;;;;6.36;88.49;102595.31;5134397;27;20061;-63
2022/11/26 02:30:05;;;;;;;25.73;8.15;;;;;;;6.32;89.84;102602.09;5135392;27;20023;-64
2022/11/26 02:32:57;;;;;;;21.80;8.65;;;;;;;6.33;89.31;102605.63;5135597;27;20071;-63
2022/11/26 02:35:46;;;;;;;19.83;7.80;;;;;;;6.31;89.76;102602.03;5135623;27;20392;-64
2022/11/26 02:38:20;;;;;;;22.65;8.10;;;;;;;6.28;90.23;102589.63;5135346;27;20084;-63
2022/11/26 02:40:46;;;;;;;20.58;8.23;;;;;;;6.27;90.29;102593.06;5135496;27;20023;-63
2022/11/26 02:43:14;;;;;;;17.55;7.65;;;;;;;6.30;90.77;102597.59;5135142;27;20093;-64
2022/11/26 02:45:44;;;;;;;21.27;7.95;;;;;;;6.23;89.86;102589.38;5133618;27;20023;-64
2022/11/26 02:48:15;;;;;;;20.70;7.93;;;;;;;6.25;90.34;102594.69;5135189;27;20027;-63
2022/11/26 02:50:48;;;;;;;19.92;8.05;;;;;;;6.36;90.22;102596.22;5133653;27;20076;-63
2022/11/26 02:53:16;;;;;;;18.13;7.63;;;;;;;6.36;89.72;102593.59;5134831;27;20122;-63
2022/11/26 02:55:46;;;;;;;21.88;8.13;;;;;;;6.35;89.15;102591.78;5134947;27;20064;-63
2022/11/26 02:58:13;;;;;;;18.67;7.65;;;;;;;6.38;90.05;102606.78;5135026;27;20065;-62
2022/11/26 03:00:41;;;;;;;17.45;7.82;;;;;;;6.36;90.41;102606.72;5134866;27;20128;-63
2022/11/26 03:03:25;;;;;;;21.98;8.48;;;;;;;6.33;89.59;102606.53;5134777;27;20022;-64
2022/11/26 03:06:01;;;;;;;16.75;7.68;;;;;;;6.25;89.63;102603.50;5135000;27;20505;-63
2022/11/26 03:08:27;;;;;;;20.77;7.93;;;;;;;6.27;89.51;102612.34;5134717;27;20023;-62
2022/11/26 03:10:53;;;;;;;20.40;8.07;;;;;;;6.28;90.25;102610.63;5134561;27;20022;-64
2022/11/26 03:13:18;;;;;;;19.70;7.78;;;;;;;6.23;90.25;102617.34;5134763;27;20069;-63
2022/11/26 03:15:44;;;;;;;24.98;8.05;;;;;;;6.17;90.98;102617.00;5134616;27;20075;-63
2022/11/26 03:18:09;;;;;;;21.88;7.75;;;;;;;6.12;90.95;102621.97;5134404;27;20491;-63
2022/11/26 03:20:34;;;;;;;19.90;7.90;;;;;;;6.14;91.08;102624.69;5133073;27;20028;-63
2022/11/26 03:23:00;;;;;;;23.80;8.10;;;;;;;6.13;91.11;102622.91;5134453;27;20046;-63
2022/11/26 03:25:25;;;;;;;20.58;8.30;;;;;;;6.13;91.44;102633.41;5134272;27;20110;-62
2022/11/26 03:27:51;;;;;;;18.38;7.43;;;;;;;6.11;91.54;102633.28;5134291;27;20111;-63
2022/11/26 03:30:16;;;;;;;18.48;7.95;;;;;;;6.09;91.34;102632.31;5134300;27;20495;-63
2022/11/26 03:32:42;;;;;;;20.95;7.68;;;;;;;6.08;91.85;102633.13;5134248;27;20075;-62
2022/11/26 03:35:07;;;;;;;16.63;7.90;;;;;;;6.06;91.97;102629.50;5134170;27;20084;-63
2022/11/26 03:37:33;;;;;;;25.10;8.38;;;;;;;6.03;91.82;102638.09;5133762;27;20093;-62
2022/11/26 03:39:58;;;;;;;25.42;8.38;;;;;;;6.02;91.62;102649.41;5134150;27;20414;-63
2022/11/26 03:42:24;;;;;;;22.52;8.13;;;;;;;5.98;91.84;102639.53;5134129;27;20031;-62
2022/11/26 03:44:49;;;;;;;18.83;7.93;;;;;;;5.98;92.33;102642.16;5134049;27;20019;-63
2022/11/26 03:47:14;;;;;;;22.83;8.38;;;;;;;5.94;92.63;102640.19;5133970;27;20411;-65
2022/11/26 03:49:40;;;;;;;19.25;7.38;;;;;;;5.90;92.38;102637.25;5134270;27;20118;-62
2022/11/26 03:52:05;;;;;;;19.35;7.70;;;;;;;5.92;92.58;102639.19;5133700;27;20043;-63
2022/11/26 03:54:31;;;;;;;19.05;8.00;;;;;;;5.88;92.62;102631.03;5133805;27;20457;-63
2022/11/26 03:56:56;;;;;;;18.63;7.70;;;;;;;5.91;92.93;102646.94;5132676;27;20030;-64
2022/11/26 03:59:21;;;;;;;20.35;7.68;;;;;;;5.87;92.76;102638.00;5133869;27;20106;-63
2022/11/26 04:01:47;;;;;;;17.33;7.13;;;;;;;5.86;92.90;102640.50;5133880;27;20031;-64
2022/11/26 04:04:12;;;;;;;23.48;7.97;;;;;;;5.83;92.57;102638.63;5134037;27;20099;-63
2022/11/26 04:06:37;;;;;;;16.27;6.88;;;;;;;5.86;93.09;102645.75;5133803;27;20408;-63
2022/11/26 04:09:03;;;;;;;17.10;7.53;;;;;;;5.84;93.19;102643.06;5133839;27;20034;-64
2022/11/26 04:11:29;;;;;;;19.63;7.45;;;;;;;5.86;93.13;102649.28;5133763;27;20385;-65
2022/11/26 04:13:54;;;;;;;21.05;7.35;;;;;;;5.91;93.05;102652.19;5133642;28;20063;-64
2022/11/26 04:16:19;;;;;;;20.90;7.30;;;;;;;5.96;93.00;102654.31;5133466;28;20024;-66
2022/11/26 04:18:46;;;;;;;21.75;7.93;;;;;;;6.06;92.95;102668.88;5133805;28;20530;-64
2022/11/26 04:21:11;;;;;;;16.80;7.10;;;;;;;6.09;92.74;102674.31;5133642;27;20531;-64
2022/11/26 04:23:36;;;;;;;20.70;7.45;;;;;;;6.05;92.59;102674.94;5133798;27;20102;-64
2022/11/26 04:26:02;;;;;;;21.88;7.60;;;;;;;6.02;92.73;102673.03;5132325;28;20152;-64
2022/11/26 04:28:28;;;;;;;22.23;7.40;;;;;;;6.01;93.16;102673.84;5133586;28;20152;-65
2022/11/26 04:30:53;;;;;;;22.17;7.53;;;;;;;5.99;92.06;102669.31;5133611;27;20019;-65
2022/11/26 04:33:19;;;;;;;22.20;7.45;;;;;;;5.95;92.96;102675.19;5133677;27;20026;-65
2022/11/26 04:35:44;;;;;;;22.38;7.10;;;;;;;5.91;93.09;102670.53;5133548;27;20029;-65
2022/11/26 04:38:10;;;;;;;31.10;7.95;;;;;;;5.92;93.39;102670.69;5133812;27;20103;-64
2022/11/26 04:40:35;;;;;;;24.77;6.75;;;;;;;5.92;93.22;102673.31;5135753;27;20473;-65
2022/11/26 04:43:00;;;;;;;21.90;6.95;;;;;;;5.90;93.27;102672.25;5137426;27;20110;-64
2022/11/26 04:45:26;;;;;;;20.98;7.00;;;;;;;5.83;93.40;102671.84;5137642;27;20027;-65
2022/11/26 04:47:52;;;;;;;20.17;7.03;;;;;;;5.78;93.14;102680.34;5137503;27;20024;-64
2022/11/26 04:50:18;;;;;;;19.75;7.43;;;;;;;5.71;92.82;102672.00;5137596;27;20023;-65
2022/11/26 04:52:43;;;;;;;18.17;6.95;;;;;;;5.71;93.23;102680.78;5137121;27;20051;-64
2022/11/26 04:55:09;;;;;;;21.13;7.07;;;;;;;5.66;93.61;102676.06;5137218;27;20507;-65
2022/11/26 04:57:34;;;;;;;20.45;6.85;;;;;;;5.61;93.49;102690.59;5137312;27;20031;-64
2022/11/26 05:00:00;;;;;;;19.38;7.43;;;;;;;5.59;93.62;102682.66;5137266;27;20084;-64
2022/11/26 05:02:25;;;;;;;22.70;6.90;;;;;;;5.64;93.95;102680.31;5137214;27;20030;-65
2022/11/26 05:04:51;;;;;;;21.08;6.72;;;;;;;5.67;94.00;102685.75;5137280;27;20088;-64
2022/11/26 05:07:16;;;;;;;20.60;6.80;;;;;;;5.66;93.25;102683.94;5137095;27;20031;-65
2022/11/26 05:09:42;;;;;;;26.15;6.55;;;;;;;5.64;93.85;102681.22;5137366;27;20110;-64
2022/11/26 05:12:07;;;;;;;18.02;5.85;;;;;;;5.62;93.60;102680.22;5136944;27;20023;-65
2022/11/26 05:14:33;;;;;;;19.45;6.35;;;;;;;5.63;93.97;102675.88;5136951;27;20468;-65
2022/11/26 05:16:58;;;;;;;25.85;6.72;;;;;;;5.62;93.53;102693.34;5136747;27;20499;-65
2022/11/26 05:19:23;;;;;;;24.63;6.82;;;;;;;5.64;93.78;102698.66;5136799;27;20031;-65
2022/11/26 05:21:49;;;;;;;21.10;6.90;;;;;;;5.60;94.57;102691.41;5136842;27;20072;-65
2022/11/26 05:24:14;;;;;;;21.40;6.57;;;;;;;5.57;94.57;102691.22;5136758;27;20023;-64
2022/11/26 05:26:39;;;;;;;21.00;6.75;;;;;;;5.54;94.83;102689.34;5136556;27;20027;-64
2022/11/26 05:29:05;;;;;;;21.70;6.65;;;;;;;5.51;95.81;102689.16;5135372;27;20532;-65
2022/11/26 05:31:30;;;;;;;25.00;7.38;;;;;;;5.49;95.82;102690.78;5136505;27;20019;-64
2022/11/26 05:33:56;;;;;;;24.45;7.38;;;;;;;5.46;95.73;102696.75;5136670;27;20030;-65
2022/11/26 05:36:21;;;;;;;17.88;7.20;;;;;;;5.43;95.68;102700.88;5136717;27;20058;-64
2022/11/26 05:38:46;;;;;;;21.70;6.85;;;;;;;5.42;95.62;102702.59;5136389;27;20031;-64
2022/11/26 05:41:12;;;;;;;23.77;7.28;;;;;;;5.45;96.50;102701.91;5136398;27;20055;-64
2022/11/26 05:43:38;;;;;;;24.85;7.18;;;;;;;5.42;95.90;102704.31;5136327;27;20386;-64
2022/11/26 05:46:05;;;;;;;20.77;7.50;;;;;;;5.38;95.75;102702.31;5136231;27;20058;-64
2022/11/26 05:48:30;;;;;;;20.45;7.43;;;;;;;5.35;96.51;102699.50;5136513;27;20031;-65
2022/11/26 05:50:57;;;;;;;21.88;7.32;;;;;;;5.34;96.89;102698.59;5136063;27;20046;-65
2022/11/26 05:53:23;;;;;;;18.52;7.30;;;;;;;5.30;97.03;102711.41;5136090;27;20035;-65
2022/11/26 05:55:48;;;;;;;27.50;7.25;;;;;;;5.32;96.93;102713.34;5136167;27;20574;-65
2022/11/26 05:58:13;;;;;;;20.02;7.50;;;;;;;5.34;96.99;102718.66;5136140;27;20027;-64
2022/11/26 06:00:39;;;;;;;20.60;7.10;;;;;;;5.33;97.09;102719.50;5136126;27;20079;-64
2022/11/26 06:03:04;;;;;;;25.35;7.38;;;;;;;5.33;97.17;102728.25;5135941;27;20027;-64
2022/11/26 06:05:29;;;;;;;22.48;7.90;;;;;;;5.32;97.22;102728.16;5135974;27;20042;-64
2022/11/26 06:07:55;;;;;;;21.75;7.72;;;;;;;5.33;97.20;102727.34;5136066;27;20054;-64
2022/11/26 06:10:20;;;;;;;22.52;7.80;;;;;;;5.32;96.99;102736.03;5135558;27;20027;-65
2022/11/26 06:12:46;;;;;;;20.33;7.50;;;;;;;5.28;96.81;102741.06;5135747;27;20027;-65
2022/11/26 06:15:11;;;;;;;16.88;7.45;;;;;;;5.21;97.05;102731.00;5135685;27;20019;-64
2022/11/26 06:17:36;;;;;;;19.48;6.97;;;;;;;5.25;96.97;102738.25;5135512;27;20037;-64
2022/11/26 06:20:03;;;;;;;20.40;7.03;;;;;;;5.24;96.79;102739.06;5135744;27;20019;-64
2022/11/26 06:22:29;;;;;;;26.70;7.68;;;;;;;5.26;96.49;102739.16;5135658;27;20500;-64
2022/11/26 06:24:54;;;;;;;20.08;8.00;;;;;;;5.20;96.30;102729.19;5135587;27;20051;-64
2022/11/26 06:27:19;;;;;;;21.65;7.18;;;;;;;5.18;96.89;102743.00;5135833;27;20050;-64
2022/11/26 06:29:45;;;;;;;22.27;7.53;;;;;;;5.19;96.82;102740.50;5135509;27;20118;-64
2022/11/26 06:32:10;;;;;;;22.13;7.65;;;;;;;5.23;96.98;102736.38;5135304;27;20027;-65
2022/11/26 06:34:35;;;;;;;19.40;7.25;;;;;;;5.20;96.33;102746.66;5135310;27;20027;-65
2022/11/26 06:37:01;;;;;;;26.63;8.38;;;;;;;5.17;97.18;102744.72;5135404;27;20030;-65
2022/11/26 06:39:26;;;;;;;18.27;7.18;;;;;;;5.16;96.91;102745.53;5135599;27;20476;-64
2022/11/26 06:41:52;;;;;;;21.15;8.23;;;;;;;5.15;97.21;102750.69;5135306;27;20480;-65
2022/11/26 06:44:17;;;;;;;25.42;7.70;;;;;;;5.17;96.55;102739.47;5135165;27;20019;-65
2022/11/26 06:46:42;;;;;;;22.30;7.38;;;;;;;5.27;97.11;102756.72;5135007;27;20089;-64
2022/11/26 06:49:09;;;;;;;26.85;8.02;;;;;;;5.23;96.64;102758.22;5135101;27;20056;-64
2022/11/26 06:51:35;;;;;;;20.60;8.13;;;;;;;5.25;96.89;102750.47;5134760;27;20034;-69
2022/11/26 06:54:00;;;;;;;22.35;8.43;;;;;;;5.23;96.47;102758.22;5135143;27;20027;-64
2022/11/26 06:56:26;;;;;;;22.20;8.30;;;;;;;5.21;96.35;102751.97;5135240;27;20073;-64
2022/11/26 06:58:56;;;;;;;23.38;8.55;;;;;;;5.25;96.46;102755.69;5135181;27;20023;-65
2022/11/26 07:01:24;;;;;;;24.33;8.55;;;;;;;5.22;96.38;102761.66;5135181;27;20023;-65
2022/11/26 07:03:50;;;;;;;22.58;9.13;;;;;;;5.17;96.62;102759.53;5134590;27;20038;-64
2022/11/26 07:06:24;;;;;;;19.73;10.38;;;;;;;5.18;96.85;102767.53;5134697;27;20077;-65
2022/11/26 07:08:50;;;;;;;26.10;10.20;;;;;;;5.20;96.41;102760.66;5134698;27;20031;-65
2022/11/26 07:11:16;;;;;;;24.42;10.40;;;;;;;5.18;96.45;102767.53;5134855;27;20381;-65
2022/11/26 07:13:42;;;;;;;27.15;10.63;;;;;;;5.10;96.49;102771.38;5134690;27;20023;-64
2022/11/26 07:16:07;;;;;;;24.38;10.38;;;;;;;5.05;96.76;102785.88;5134695;27;20479;-66
2022/11/26 07:18:33;;;;;;;21.30;9.90;;;;;;;4.98;96.64;102781.97;5134613;27;20590;-64
2022/11/26 07:21:08;;;;;;;24.45;9.80;;;;;;;4.96;97.23;102791.41;5134547;27;20031;-64
2022/11/26 07:23:34;;;;;;;23.00;10.45;;;;;;;4.93;97.28;102796.47;5134813;27;20019;-64
2022/11/26 07:26:00;;;;;;;27.13;9.60;;;;;;;4.87;97.62;102796.06;5134382;27;20106;-65
2022/11/26 07:28:28;;;;;;;29.77;10.45;;;;;;;4.89;98.23;102798.81;5134334;27;20023;-65
2022/11/26 07:30:53;;;;;;;24.88;10.35;;;;;;;4.96;98.05;102801.00;5134224;27;20019;-64
2022/11/26 07:33:19;;;;;;;21.95;9.10;;;;;;;5.03;97.73;102806.72;5134296;27;20027;-64
2022/11/26 07:35:44;;;;;;;20.35;9.30;;;;;;;5.05;97.99;102798.97;5134306;27;20084;-65
2022/11/26 07:38:09;;;;;;;25.65;9.82;;;;;;;5.09;98.14;102795.72;5134452;27;20029;-64
2022/11/26 07:40:35;;;;;;;19.52;9.75;;;;;;;5.10;97.26;102802.81;5134247;27;20030;-64
2022/11/26 07:43:00;;;;;;;23.23;9.82;;;;;;;5.08;97.49;102804.41;5134207;27;20106;-64
2022/11/26 07:45:26;;;;;;;27.55;9.30;;;;;;;5.10;97.69;102796.66;5134189;27;20027;-63
2022/11/26 07:47:51;;;;;;;22.25;10.23;;;;;;;5.04;98.01;102797.16;5133972;27;20027;-64
2022/11/26 07:50:16;;;;;;;26.67;10.32;;;;;;;5.05;98.26;102803.31;5134333;27;20066;-65
2022/11/26 07:52:42;;;;;;;26.80;10.05;;;;;;;5.10;97.98;102802.81;5133529;27;20081;-64
2022/11/26 07:55:07;;;;;;;24.67;10.00;;;;;;;5.15;98.32;102808.34;5134045;27;20096;-64
2022/11/26 07:57:33;;;;;;;24.98;10.02;;;;;;;5.11;97.93;102794.13;5133989;27;20019;-65
2022/11/26 07:59:58;;;;;;;24.40;9.70;;;;;;;5.15;98.03;102800.50;5132517;27;20084;-65
2022/11/26 08:02:23;;;;;;;30.42;10.18;;;;;;;5.19;98.00;102798.16;5133744;27;20519;-64
2022/11/26 08:04:49;;;;;;;28.50;10.70;;;;;;;5.19;97.98;102802.50;5133906;27;20028;-64
2022/11/26 08:07:14;;;;;;;26.25;10.95;;;;;;;5.15;97.89;102788.28;5134090;27;20059;-65
2022/11/26 08:09:40;;;;;;;27.67;10.10;;;;;;;5.19;98.28;102798.16;5134032;28;20015;-64
2022/11/26 08:12:05;;;;;;;24.80;9.98;;;;;;;5.20;98.88;102804.31;5133634;28;20080;-65
2022/11/26 08:14:31;;;;;;;30.05;10.13;;;;;;;5.23;98.98;102804.50;5134175;27;20031;-64
2022/11/26 08:16:56;;;;;;;21.00;9.05;;;;;;;5.30;99.14;102798.81;5137755;27;20031;-65
2022/11/26 08:19:22;;;;;;;30.73;9.80;;;;;;;5.37;98.92;102802.75;5138232;27;20030;-64
2022/11/26 08:21:47;;;;;;;23.08;9.48;;;;;;;5.47;99.16;102806.03;5137639;27;20551;-65
2022/11/26 08:24:16;;;;;;;23.73;10.02;;;;;;;5.58;99.14;102808.44;5138013;27;20425;-65
2022/11/26 08:26:42;;;;;;;29.05;9.93;;;;;;;5.75;99.55;102813.03;5138149;27;20019;-65
2022/11/26 08:29:07;;;;;;;23.25;9.40;;;;;;;5.82;99.28;102814.28;5138065;27;20126;-65
2022/11/26 08:31:34;;;;;;;28.10;8.43;;;;;;;5.85;98.56;102814.47;5137887;27;20468;-65
2022/11/26 08:34:01;;;;;;;25.85;9.63;;;;;;;5.85;98.59;102818.00;5136348;27;20118;-65
2022/11/26 08:36:28;;;;;;;28.48;9.13;;;;;;;5.84;98.65;102810.06;5136380;27;20019;-65
2022/11/26 08:38:54;;;;;;;23.85;9.18;;;;;;;5.87;99.07;102820.75;5137906;27;20019;-64
2022/11/26 08:41:19;;;;;;;24.30;8.43;;;;;;;5.89;99.13;102821.72;5137693;27;20422;-65
2022/11/26 08:43:45;;;;;;;24.08;8.40;;;;;;;5.94;99.02;102820.31;5137614;27;20476;-64
2022/11/26 08:46:10;;;;;;;24.63;8.63;;;;;;;5.97;98.81;102817.91;5137437;27;20027;-65
2022/11/26 08:48:36;;;;;;;26.67;8.73;;;;;;;6.02;99.34;102819.06;5137925;27;20037;-64
2022/11/26 08:51:07;;;;;;;29.98;8.88;;;;;;;6.07;99.17;102814.09;5136530;27;20031;-64
2022/11/26 08:53:34;;;;;;;22.80;8.00;;;;;;;6.08;98.87;102822.09;5135931;27;20393;-65
2022/11/26 08:56:05;;;;;;;22.67;8.43;;;;;;;6.06;99.62;102813.19;5137365;27;20492;-65
2022/11/26 08:58:36;;;;;;;22.57;8.27;;;;;;;6.10;99.90;102823.06;5137222;27;20080;-65
2022/11/26 09:01:12;;;;;;;24.70;7.78;;;;;;;6.16;99.31;102815.56;5137615;27;20284;-64
2022/11/26 09:03:38;;;;;;;25.10;8.55;;;;;;;6.17;99.35;102814.78;5137212;27;20026;-65
2022/11/26 09:06:05;;;;;;;25.88;7.82;;;;;;;6.22;99.53;102825.53;5137448;27;20023;-65
2022/11/26 09:08:33;;;;;;;26.25;8.02;;;;;;;6.24;99.92;102826.53;5137371;27;20019;-64
2022/11/26 09:10:59;;;;;;;27.88;9.13;;;;;;;6.28;99.65;102821.53;5137100;27;20023;-65
2022/11/26 09:13:24;;;;;;;26.52;8.85;;;;;;;6.33;99.70;102831.41;5137262;27;20076;-65
2022/11/26 09:15:50;;;;;;;29.30;8.32;;;;;;;6.33;99.67;102831.41;5137266;27;20062;-65
2022/11/26 09:18:16;;;;;;;32.50;9.13;;;;;;;6.35;100.00;102835.97;5136863;27;20084;-64
2022/11/26 09:20:41;;;;;;;26.55;7.70;;;;;;;6.38;100.00;102832.59;5136976;27;20500;-65
2022/11/26 09:23:07;;;;;;;19.40;8.38;;;;;;;6.41;100.00;102833.69;5136826;27;20035;-63
2022/11/26 09:25:32;;;;;;;22.38;7.68;;;;;;;6.43;99.94;102845.22;5136196;27;20476;-63
2022/11/26 09:27:58;;;;;;;29.20;8.40;;;;;;;6.44;100.00;102844.38;5136812;27;20445;-64
2022/11/26 09:30:23;;;;;;;23.45;7.65;;;;;;;6.48;100.00;102848.09;5136714;27;20027;-64
2022/11/26 09:32:48;;;;;;;21.67;8.18;;;;;;;6.50;100.00;102854.34;5136659;27;20039;-64
2022/11/26 09:35:14;;;;;;;29.67;8.25;;;;;;;6.52;100.00;102852.72;5136550;27;20106;-64
2022/11/26 09:37:39;;;;;;;28.05;8.90;;;;;;;6.51;100.00;102843.94;5136578;27;20036;-63
2022/11/26 09:40:05;;;;;;;27.10;8.63;;;;;;;6.60;100.00;102859.34;5136765;27;20020;-64
2022/11/26 09:43:04;;;;;;;27.95;8.27;;;;;;;6.61;100.00;102858.53;5136330;27;20519;-64
2022/11/26 09:45:45;;;;;;;21.95;7.53;;;;;;;6.66;99.88;102869.28;5136481;27;20039;-64
2022/11/26 09:48:23;;;;;;;29.60;8.73;;;;;;;6.67;100.00;102858.88;5136478;27;20038;-65
2022/11/26 09:50:56;;;;;;;29.13;7.78;;;;;;;6.64;99.96;102842.94;5136628;27;20049;-63
2022/11/26 09:53:26;;;;;;;22.90;7.40;;;;;;;6.73;100.00;102838.22;5134841;27;20556;-63
2022/11/26 09:55:54;;;;;;;20.30;7.60;;;;;;;6.83;100.00;102847.53;5136320;27;20027;-64
2022/11/26 09:58:39;;;;;;;22.42;8.00;;;;;;;6.93;100.00;102846.34;5134825;27;20488;-65
2022/11/26 10:01:05;;;;;;;21.42;7.82;;;;;;;6.99;100.00;102851.97;5136541;27;20080;-64
2022/11/26 10:03:35;;;;;;;23.35;8.38;;;;;;;7.01;100.00;102845.06;5136095;27;20042;-64
2022/11/26 10:06:38;;;;;;;22.85;7.97;;;;;;;7.02;99.79;102853.06;5136046;27;20024;-64
2022/11/26 10:09:25;;;;;;;26.65;7.85;;;;;;;7.06;99.94;102850.59;5135995;27;20043;-64
2022/11/26 10:12:21;;;;;;;24.38;7.53;;;;;;;7.10;99.40;102850.84;5135845;27;20106;-64
2022/11/26 10:15:13;;;;;;;27.40;8.27;;;;;;;7.15;99.29;102848.47;5135880;27;20024;-64
2022/11/26 10:18:27;;;;;;;23.25;8.35;;;;;;;7.17;99.67;102857.38;5135882;27;20074;-64
2022/11/26 10:21:10;;;;;;;26.58;7.88;;;;;;;7.20;99.76;102854.91;5052600;28;20132;-64
2022/11/26 10:23:44;;;;;;;22.73;7.82;;;;;;;7.22;100.00;102855.91;5136020;27;20106;-64
2022/11/26 10:26:33;;;;;;;27.52;7.70;;;;;;;7.25;100.00;102846.47;5135918;27;20046;-64
2022/11/26 10:29:20;;;;;;;23.67;7.32;;;;;;;7.32;100.00;102852.97;5135568;27;20026;-64
2022/11/26 10:31:47;;;;;;;31.33;8.15;;;;;;;7.42;99.72;102854.41;5135502;27;20019;-64
2022/11/26 10:34:20;;;;;;;21.73;7.20;;;;;;;7.58;100.00;102849.19;5135692;27;20102;-64
2022/11/26 10:36:46;;;;;;;;;;;;;;;7.73;99.68;102836.84;5135615;27;20035;-64
2022/11/26 10:39:16;;;;;;;28.50;8.07;;;;;;;7.98;100.00;102838.16;5134723;27;19914;-64
2022/11/26 10:41:42;;;;;;;22.02;7.70;;;;;;;8.14;98.05;102834.63;5135285;27;20023;-64
2022/11/26 10:44:44;;;;;;;26.08;7.10;;;;;;;8.26;97.84;102835.25;5135305;27;20106;-63
2022/11/26 10:47:26;;;;;;;22.90;8.23;;;;;;;8.37;97.07;102833.22;5051822;28;20037;-64
2022/11/26 10:50:13;;;;;;;23.95;6.78;;;;;;;8.41;96.08;102828.19;5127894;27;20070;-63
2022/11/26 10:52:39;;;;;;;18.77;7.07;;;;;;;8.43;95.04;102826.50;5119204;27;20424;-64
2022/11/26 10:55:18;;;;;;;21.98;7.15;;;;;;;8.46;94.59;102831.03;5135058;27;20027;-64
2022/11/26 10:57:50;;;;;;;25.42;6.75;;;;;;;8.50;94.40;102838.28;5133686;27;20123;-64
2022/11/26 11:00:29;;;;;;;24.27;7.25;;;;;;;8.59;94.75;102837.84;5135024;27;20103;-63
2022/11/26 11:02:54;;;;;;;19.83;6.38;;;;;;;8.65;94.01;102825.91;5135157;27;20118;-64
2022/11/26 11:05:20;;;;;;;21.25;7.05;;;;;;;8.76;94.27;102829.94;5134808;27;20502;-63
2022/11/26 11:07:46;;;;;;;16.15;6.10;;;;;;;8.87;93.01;102819.06;5133554;27;20034;-63
2022/11/26 11:10:11;;;;;;;28.88;6.70;;;;;;;8.91;92.75;102827.19;5134675;27;20031;-64
2022/11/26 11:12:48;;;;;;;22.08;6.63;;;;;;;8.99;92.37;102827.53;5134561;27;20358;-64
2022/11/26 11:15:17;;;;;;;20.83;6.72;;;;;;;9.07;91.54;102828.81;5134773;27;20484;-64
2022/11/26 11:17:44;;;;;;;19.15;6.35;;;;;;;9.22;92.31;102818.13;5134365;27;20027;-63
2022/11/26 11:20:16;;;;;;;22.33;6.38;;;;;;;9.44;91.15;102825.31;5134573;27;20019;-64
2022/11/26 11:22:43;;;;;;;25.33;6.65;;;;;;;9.67;90.12;102829.03;5134764;27;20109;-64
2022/11/26 11:25:29;;;;;;;21.70;6.45;;;;;;;9.83;88.67;102823.63;5134423;27;20055;-64
2022/11/26 11:28:01;;;;;;;17.27;5.82;;;;;;;9.97;88.74;102826.88;5134706;27;20027;-63
2022/11/26 11:30:29;;;;;;;23.65;6.93;;;;;;;10.15;87.79;102825.06;5134498;27;20061;-64
2022/11/26 11:32:57;;;;;;;25.00;6.53;;;;;;;10.31;86.79;102826.66;5134148;27;20012;-64